sensor_id;sensor_type;location;lat;lon;timestamp;pressure;altitude;pressure_sealevel;temperature;humidity
36788;BME280;22738;45.560;9.434;2022-12-20T00:00:25;101383.63;;;6.80;100.00
36788;BME280;22738;45.560;9.434;2022-12-20T00:07:06;101378.53;;;6.78;100.00
36788;BME280;22738;45.560;9.434;2022-12-20T00:13:47;101372.47;;;6.79;100.00
36788;BME280;22738;45.560;9.434;2022-12-20T00:20:29;101367.47;;;6.73;100.00
36788;BME280;22738;45.560;9.434;2022-12-20T00:27:10;101365.63;;;6.78;100.00
36788;BME280;22738;45.560;9.434;2022-12-20T00:33:53;101357.00;;;6.79;100.00
36788;BME280;22738;45.560;9.434;2022-12-20T00:40:34;101352.91;;;6.72;100.00
36788;BME280;22738;45.560;9.434;2022-12-20T00:47:15;101341.75;;;6.70;100.00
36788;BME280;22738;45.560;9.434;2022-12-20T00:53:56;101324.63;;;6.69;100.00
36788;BME280;22738;45.560;9.434;2022-12-20T01:00:39;101319.63;;;6.63;100.00
36788;BME280;22738;45.560;9.434;2022-12-20T01:07:20;101324.69;;;6.66;100.00
36788;BME280;22738;45.560;9.434;2022-12-20T01:14:07;101306.78;;;6.62;100.00
36788;BME280;22738;45.560;9.434;2022-12-20T01:20:59;101304.88;;;6.70;100.00
36788;BME280;22738;45.560;9.434;2022-12-20T01:27:41;101315.13;;;6.71;100.00
36788;BME280;22738;45.560;9.434;2022-12-20T01:34:22;101312.63;;;6.68;100.00
36788;BME280;22738;45.560;9.434;2022-12-20T01:41:03;101298.94;;;6.66;100.00
36788;BME280;22738;45.560;9.434;2022-12-20T01:47:44;101296.22;;;6.72;100.00
36788;BME280;22738;45.560;9.434;2022-12-20T02:01:27;101300.53;;;6.70;100.00
36788;BME280;22738;45.560;9.434;2022-12-20T02:08:10;101291.94;;;6.71;100.00
36788;BME280;22738;45.560;9.434;2022-12-20T02:15:20;101273.91;;;6.71;100.00
36788;BME280;22738;45.560;9.434;2022-12-20T02:35:48;101277.34;;;6.72;100.00
36788;BME280;22738;45.560;9.434;2022-12-20T02:42:31;101279.97;;;6.69;100.00
36788;BME280;22738;45.560;9.434;2022-12-20T02:49:16;101270.56;;;6.68;100.00
36788;BME280;22738;45.560;9.434;2022-12-20T03:02:49;101256.09;;;6.62;100.00
36788;BME280;22738;45.560;9.434;2022-12-20T03:09:49;101251.81;;;6.63;100.00
36788;BME280;22738;45.560;9.434;2022-12-20T03:16:30;101246.66;;;6.63;100.00
36788;BME280;22738;45.560;9.434;2022-12-20T03:23:11;101254.31;;;6.64;100.00
36788;BME280;22738;45.560;9.434;2022-12-20T03:29:53;101242.34;;;6.63;100.00
36788;BME280;22738;45.560;9.434;2022-12-20T03:36:34;101234.75;;;6.59;100.00
36788;BME280;22738;45.560;9.434;2022-12-20T03:43:20;101235.66;;;6.56;100.00
36788;BME280;22738;45.560;9.434;2022-12-20T03:50:01;101232.34;;;6.51;100.00
36788;BME280;22738;45.560;9.434;2022-12-20T03:56:46;101229.66;;;6.56;100.00
36788;BME280;22738;45.560;9.434;2022-12-20T04:03:27;101230.56;;;6.53;100.00
36788;BME280;22738;45.560;9.434;2022-12-20T04:10:09;101222.03;;;6.51;100.00
36788;BME280;22738;45.560;9.434;2022-12-20T04:16:50;101222.88;;;6.52;100.00
36788;BME280;22738;45.560;9.434;2022-12-20T04:23:35;101208.25;;;6.52;100.00
36788;BME280;22738;45.560;9.434;2022-12-20T04:30:18;101208.19;;;6.55;100.00
36788;BME280;22738;45.560;9.434;2022-12-20T04:37:01;101198.06;;;6.49;100.00
36788;BME280;22738;45.560;9.434;2022-12-20T04:43:55;101198.06;;;6.49;100.00
36788;BME280;22738;45.560;9.434;2022-12-20T04:50:39;101194.00;;;6.40;100.00
36788;BME280;22738;45.560;9.434;2022-12-20T04:57:20;101189.81;;;6.35;100.00
36788;BME280;22738;45.560;9.434;2022-12-20T05:04:03;101186.41;;;6.34;100.00
36788;BME280;22738;45.560;9.434;2022-12-20T05:10:48;101187.25;;;6.35;100.00
36788;BME280;22738;45.560;9.434;2022-12-20T05:17:30;101194.16;;;6.33;100.00
36788;BME280;22738;45.560;9.434;2022-12-20T05:24:13;101194.91;;;6.38;100.00
36788;BME280;22738;45.560;9.434;2022-12-20T05:31:29;101194.97;;;6.35;100.00
36788;BME280;22738;45.560;9.434;2022-12-20T05:38:12;101188.13;;;6.34;100.00
36788;BME280;22738;45.560;9.434;2022-12-20T05:44:54;101183.88;;;6.33;100.00
36788;BME280;22738;45.560;9.434;2022-12-20T05:51:36;101176.31;;;6.27;100.00
36788;BME280;22738;45.560;9.434;2022-12-20T05:58:29;101176.44;;;6.21;100.00
36788;BME280;22738;45.560;9.434;2022-12-20T06:05:18;101177.00;;;6.32;100.00
36788;BME280;22738;45.560;9.434;2022-12-20T06:12:04;101173.50;;;6.36;100.00
36788;BME280;22738;45.560;9.434;2022-12-20T06:18:48;101188.91;;;6.37;100.00
36788;BME280;22738;45.560;9.434;2022-12-20T06:25:30;101182.09;;;6.35;100.00
36788;BME280;22738;45.560;9.434;2022-12-20T06:32:12;101190.81;;;6.29;100.00
36788;BME280;22738;45.560;9.434;2022-12-20T06:38:53;101186.38;;;6.36;100.00
36788;BME280;22738;45.560;9.434;2022-12-20T06:45:34;101181.41;;;6.28;100.00
36788;BME280;22738;45.560;9.434;2022-12-20T06:52:16;101171.78;;;6.35;100.00
36788;BME280;22738;45.560;9.434;2022-12-20T06:59:00;101172.59;;;6.37;100.00
36788;BME280;22738;45.560;9.434;2022-12-20T07:05:42;101178.66;;;6.36;100.00
36788;BME280;22738;45.560;9.434;2022-12-20T07:12:23;101194.84;;;6.39;100.00
36788;BME280;22738;45.560;9.434;2022-12-20T07:19:04;101184.38;;;6.47;100.00
36788;BME280;22738;45.560;9.434;2022-12-20T07:25:53;101191.19;;;6.48;100.00
36788;BME280;22738;45.560;9.434;2022-12-20T07:32:34;101191.94;;;6.53;100.00
36788;BME280;22738;45.560;9.434;2022-12-20T07:39:17;101186.72;;;6.56;100.00
36788;BME280;22738;45.560;9.434;2022-12-20T07:45:58;101187.41;;;6.61;100.00
36788;BME280;22738;45.560;9.434;2022-12-20T07:52:40;101187.53;;;6.58;100.00
36788;BME280;22738;45.560;9.434;2022-12-20T07:59:27;101194.09;;;6.68;100.00
36788;BME280;22738;45.560;9.434;2022-12-20T08:06:09;101181.97;;;6.73;100.00
36788;BME280;22738;45.560;9.434;2022-12-20T08:12:50;101176.56;;;6.82;100.00
36788;BME280;22738;45.560;9.434;2022-12-20T08:19:32;101191.28;;;6.79;100.00
36788;BME280;22738;45.560;9.434;2022-12-20T08:26:13;101186.69;;;6.88;100.00
36788;BME280;22738;45.560;9.434;2022-12-20T08:32:54;101177.09;;;6.93;100.00
36788;BME280;22738;45.560;9.434;2022-12-20T08:39:35;101181.13;;;7.03;100.00
36788;BME280;22738;45.560;9.434;2022-12-20T08:46:17;101173.44;;;7.02;100.00
36788;BME280;22738;45.560;9.434;2022-12-20T08:52:58;101176.72;;;7.07;100.00
36788;BME280;22738;45.560;9.434;2022-12-20T08:59:39;101178.31;;;7.12;100.00
36788;BME280;22738;45.560;9.434;2022-12-20T09:06:21;101189.41;;;7.14;100.00
36788;BME280;22738;45.560;9.434;2022-12-20T09:13:02;101182.41;;;7.19;100.00
36788;BME280;22738;45.560;9.434;2022-12-20T09:19:43;101188.31;;;7.23;100.00
36788;BME280;22738;45.560;9.434;2022-12-20T09:26:24;101175.38;;;7.25;100.00
36788;BME280;22738;45.560;9.434;2022-12-20T09:33:07;101180.44;;;7.28;100.00
36788;BME280;22738;45.560;9.434;2022-12-20T09:39:48;101180.16;;;7.37;100.00
36788;BME280;22738;45.560;9.434;2022-12-20T09:46:32;101172.31;;;7.41;100.00
36788;BME280;22738;45.560;9.434;2022-12-20T09:53:35;101172.97;;;7.48;100.00
36788;BME280;22738;45.560;9.434;2022-12-20T10:00:19;101172.13;;;7.47;100.00
36788;BME280;22738;45.560;9.434;2022-12-20T10:14:14;101151.09;;;7.61;100.00
36788;BME280;22738;45.560;9.434;2022-12-20T10:27:56;101133.91;;;7.60;100.00
36788;BME280;22738;45.560;9.434;2022-12-20T10:34:45;101128.53;;;7.66;100.00
36788;BME280;22738;45.560;9.434;2022-12-20T10:48:42;101125.31;;;7.87;100.00
36788;BME280;22738;45.560;9.434;2022-12-20T10:55:37;101121.72;;;7.91;100.00
36788;BME280;22738;45.560;9.434;2022-12-20T11:02:24;101122.59;;;8.16;100.00
36788;BME280;22738;45.560;9.434;2022-12-20T11:16:25;101080.91;;;8.28;100.00
36788;BME280;22738;45.560;9.434;2022-12-20T11:30:14;101054.84;;;8.34;100.00
36788;BME280;22738;45.560;9.434;2022-12-20T11:51:38;101032.41;;;8.59;100.00
36788;BME280;22738;45.560;9.434;2022-12-20T11:58:50;101038.59;;;8.55;100.00
36788;BME280;22738;45.560;9.434;2022-12-20T12:06:15;101016.13;;;8.57;100.00
36788;BME280;22738;45.560;9.434;2022-12-20T12:13:10;100985.84;;;8.61;100.00
36788;BME280;22738;45.560;9.434;2022-12-20T12:27:03;100969.97;;;8.48;100.00
36788;BME280;22738;45.560;9.434;2022-12-20T12:34:09;100958.84;;;8.46;100.00
36788;BME280;22738;45.560;9.434;2022-12-20T12:41:00;100946.28;;;8.37;100.00
36788;BME280;22738;45.560;9.434;2022-12-20T12:48:02;100935.16;;;8.35;100.00
36788;BME280;22738;45.560;9.434;2022-12-20T12:54:46;100939.84;;;8.24;100.00
36788;BME280;22738;45.560;9.434;2022-12-20T13:01:49;100931.56;;;8.15;100.00
36788;BME280;22738;45.560;9.434;2022-12-20T13:15:49;100936.91;;;8.10;100.00
36788;BME280;22738;45.560;9.434;2022-12-20T13:22:30;100930.72;;;8.14;100.00
36788;BME280;22738;45.560;9.434;2022-12-20T13:29:32;100940.97;;;8.17;100.00
36788;BME280;22738;45.560;9.434;2022-12-20T13:36:34;100929.50;;;8.24;100.00
36788;BME280;22738;45.560;9.434;2022-12-20T13:43:25;100933.06;;;8.20;100.00
36788;BME280;22738;45.560;9.434;2022-12-20T13:50:23;100937.69;;;8.12;100.00
36788;BME280;22738;45.560;9.434;2022-12-20T13:57:06;100929.31;;;8.06;100.00
36788;BME280;22738;45.560;9.434;2022-12-20T14:03:47;100920.63;;;8.08;100.00
36788;BME280;22738;45.560;9.434;2022-12-20T14:10:30;100911.63;;;7.95;100.00
36788;BME280;22738;45.560;9.434;2022-12-20T14:17:31;100909.28;;;7.89;100.00
36788;BME280;22738;45.560;9.434;2022-12-20T14:24:22;100898.47;;;7.78;100.00
36788;BME280;22738;45.560;9.434;2022-12-20T14:31:06;100901.16;;;7.75;100.00
36788;BME280;22738;45.560;9.434;2022-12-20T14:38:00;100880.66;;;7.72;100.00
36788;BME280;22738;45.560;9.434;2022-12-20T14:44:43;100871.09;;;7.74;100.00
36788;BME280;22738;45.560;9.434;2022-12-20T14:51:24;100876.31;;;7.72;100.00
36788;BME280;22738;45.560;9.434;2022-12-20T15:12:08;100867.94;;;7.66;100.00
36788;BME280;22738;45.560;9.434;2022-12-20T15:18:54;100868.41;;;7.54;100.00
36788;BME280;22738;45.560;9.434;2022-12-20T15:25:36;100877.31;;;7.44;100.00
36788;BME280;22738;45.560;9.434;2022-12-20T15:32:25;100878.44;;;7.37;100.00
36788;BME280;22738;45.560;9.434;2022-12-20T15:39:10;100869.81;;;7.38;100.00
36788;BME280;22738;45.560;9.434;2022-12-20T15:45:53;100872.38;;;7.38;100.00
36788;BME280;22738;45.560;9.434;2022-12-20T15:52:34;100858.00;;;7.31;100.00
36788;BME280;22738;45.560;9.434;2022-12-20T15:59:15;100861.38;;;7.33;100.00
36788;BME280;22738;45.560;9.434;2022-12-20T16:05:56;100869.13;;;7.33;100.00
36788;BME280;22738;45.560;9.434;2022-12-20T16:12:37;100849.44;;;7.30;100.00
36788;BME280;22738;45.560;9.434;2022-12-20T16:19:18;100860.50;;;7.34;100.00
36788;BME280;22738;45.560;9.434;2022-12-20T16:25:59;100843.56;;;7.27;100.00
36788;BME280;22738;45.560;9.434;2022-12-20T16:32:40;100845.13;;;7.31;100.00
36788;BME280;22738;45.560;9.434;2022-12-20T16:39:21;100855.53;;;7.28;100.00
36788;BME280;22738;45.560;9.434;2022-12-20T16:46:02;100853.75;;;7.30;100.00
36788;BME280;22738;45.560;9.434;2022-12-20T16:52:44;100869.22;;;7.30;100.00
36788;BME280;22738;45.560;9.434;2022-12-20T16:59:26;100867.53;;;7.29;100.00
36788;BME280;22738;45.560;9.434;2022-12-20T17:06:13;100849.53;;;7.27;100.00
36788;BME280;22738;45.560;9.434;2022-12-20T17:12:55;100859.81;;;7.29;100.00
36788;BME280;22738;45.560;9.434;2022-12-20T17:19:36;100862.16;;;7.35;100.00
36788;BME280;22738;45.560;9.434;2022-12-20T17:26:23;100853.75;;;7.30;100.00
36788;BME280;22738;45.560;9.434;2022-12-20T17:33:05;100859.13;;;7.24;100.00
36788;BME280;22738;45.560;9.434;2022-12-20T17:39:45;100841.94;;;7.22;100.00
36788;BME280;22738;45.560;9.434;2022-12-20T17:46:27;100840.19;;;7.25;100.00
36788;BME280;22738;45.560;9.434;2022-12-20T17:53:08;100824.81;;;7.22;100.00
36788;BME280;22738;45.560;9.434;2022-12-20T17:59:49;100831.63;;;7.22;100.00
36788;BME280;22738;45.560;9.434;2022-12-20T18:06:32;100832.69;;;7.17;100.00
36788;BME280;22738;45.560;9.434;2022-12-20T18:13:13;100828.16;;;7.24;100.00
36788;BME280;22738;45.560;9.434;2022-12-20T18:19:54;100828.06;;;7.27;100.00
36788;BME280;22738;45.560;9.434;2022-12-20T18:26:35;100833.34;;;7.24;100.00
36788;BME280;22738;45.560;9.434;2022-12-20T18:33:16;100825.50;;;7.27;100.00
36788;BME280;22738;45.560;9.434;2022-12-20T18:40:00;100811.91;;;7.22;100.00
36788;BME280;22738;45.560;9.434;2022-12-20T18:46:43;100805.06;;;7.20;100.00
36788;BME280;22738;45.560;9.434;2022-12-20T18:53:24;100809.25;;;7.25;100.00
36788;BME280;22738;45.560;9.434;2022-12-20T19:00:07;100828.91;;;7.27;100.00
36788;BME280;22738;45.560;9.434;2022-12-20T19:06:48;100816.06;;;7.26;100.00
36788;BME280;22738;45.560;9.434;2022-12-20T19:13:29;100823.00;;;7.24;100.00
36788;BME280;22738;45.560;9.434;2022-12-20T19:20:10;100824.56;;;7.29;100.00
36788;BME280;22738;45.560;9.434;2022-12-20T19:26:57;100825.34;;;7.31;100.00
36788;BME280;22738;45.560;9.434;2022-12-20T19:33:48;100826.28;;;7.29;100.00
36788;BME280;22738;45.560;9.434;2022-12-20T19:40:29;100829.56;;;7.34;100.00
36788;BME280;22738;45.560;9.434;2022-12-20T19:47:14;100816.66;;;7.34;100.00
36788;BME280;22738;45.560;9.434;2022-12-20T19:53:59;100822.00;;;7.28;100.00
36788;BME280;22738;45.560;9.434;2022-12-20T20:00:40;100819.56;;;7.25;100.00
36788;BME280;22738;45.560;9.434;2022-12-20T20:07:21;100809.25;;;7.25;100.00
36788;BME280;22738;45.560;9.434;2022-12-20T20:14:09;100811.00;;;7.22;100.00
36788;BME280;22738;45.560;9.434;2022-12-20T20:20:53;100802.47;;;7.20;100.00
36788;BME280;22738;45.560;9.434;2022-12-20T20:27:36;100797.47;;;7.17;100.00
36788;BME280;22738;45.560;9.434;2022-12-20T20:34:21;100811.00;;;7.22;100.00
36788;BME280;22738;45.560;9.434;2022-12-20T20:41:02;100807.53;;;7.24;100.00
36788;BME280;22738;45.560;9.434;2022-12-20T20:47:44;100800.81;;;7.19;100.00
36788;BME280;22738;45.560;9.434;2022-12-20T20:54:26;100789.81;;;7.14;100.00
36788;BME280;22738;45.560;9.434;2022-12-20T21:01:08;100795.84;;;7.13;100.00
36788;BME280;22738;45.560;9.434;2022-12-20T21:07:50;100788.91;;;7.15;100.00
36788;BME280;22738;45.560;9.434;2022-12-20T21:14:31;100798.94;;;7.25;100.00
36788;BME280;22738;45.560;9.434;2022-12-20T21:21:12;100783.47;;;7.25;100.00
36788;BME280;22738;45.560;9.434;2022-12-20T21:27:54;100771.34;;;7.27;100.00
36788;BME280;22738;45.560;9.434;2022-12-20T21:34:35;100792.63;;;7.32;100.00
36788;BME280;22738;45.560;9.434;2022-12-20T21:41:20;100779.88;;;7.29;100.00
36788;BME280;22738;45.560;9.434;2022-12-20T21:48:03;100776.50;;;7.27;100.00
36788;BME280;22738;45.560;9.434;2022-12-20T21:54:45;100791.03;;;7.29;100.00
36788;BME280;22738;45.560;9.434;2022-12-20T22:01:27;100785.97;;;7.26;100.00
36788;BME280;22738;45.560;9.434;2022-12-20T22:08:08;100778.19;;;7.28;100.00
36788;BME280;22738;45.560;9.434;2022-12-20T22:14:49;100777.72;;;7.16;100.00
36788;BME280;22738;45.560;9.434;2022-12-20T22:21:32;100769.50;;;7.05;100.00
36788;BME280;22738;45.560;9.434;2022-12-20T22:28:13;100761.69;;;7.08;100.00
36788;BME280;22738;45.560;9.434;2022-12-20T22:34:54;100749.56;;;7.10;100.00
36788;BME280;22738;45.560;9.434;2022-12-20T22:41:36;100748.19;;;7.00;100.00
36788;BME280;22738;45.560;9.434;2022-12-20T22:48:18;100751.16;;;7.14;100.00
36788;BME280;22738;45.560;9.434;2022-12-20T22:54:59;100743.47;;;7.13;100.00
36788;BME280;22738;45.560;9.434;2022-12-20T23:01:40;100708.09;;;7.16;100.00
36788;BME280;22738;45.560;9.434;2022-12-20T23:08:23;100716.63;;;7.18;100.00
36788;BME280;22738;45.560;9.434;2022-12-20T23:15:10;100710.59;;;7.19;100.00
36788;BME280;22738;45.560;9.434;2022-12-20T23:22:10;100684.56;;;7.02;100.00
36788;BME280;22738;45.560;9.434;2022-12-20T23:29:10;100689.50;;;7.08;100.00
36788;BME280;22738;45.560;9.434;2022-12-20T23:36:02;100675.59;;;7.12;100.00
36788;BME280;22738;45.560;9.434;2022-12-20T23:42:43;100689.38;;;7.11;100.00
36788;BME280;22738;45.560;9.434;2022-12-20T23:49:24;100686.13;;;7.06;100.00
36788;BME280;22738;45.560;9.434;2022-12-20T23:56:09;100655.19;;;7.06;100.00
